Time;durP1;ratioP1;P1;durP2;ratioP2;P2;SDS_P1;SDS_P2;PMS_P1;PMS_P2;Temp;Humidity;BMP_temperature;BMP_pressure;BME280_temperature;BME280_humidity;BME280_pressure;Samples;Min_cycle;Max_cycle;Signal;HPM_P1;HPM_P2
2023/03/11 00:00:26;;;;;;;6.10;4.60;;;;;;;8.96;100.00;96368.38;109620;1250;66166;-78
2023/03/11 00:03:14;;;;;;;6.80;4.50;;;;;;;8.97;100.00;96368.43;109623;1251;61715;-78
2023/03/11 00:05:42;;;;;;;6.50;4.20;;;;;;;8.98;100.00;96366.15;109553;1250;64772;-78
2023/03/11 00:08:13;;;;;;;6.70;4.30;;;;;;;9.00;100.00;96362.09;109592;1250;58956;-78
2023/03/11 00:10:42;;;;;;;5.50;3.70;;;;;;;9.02;100.00;96361.34;109611;1250;59164;-78
2023/03/11 00:13:12;;;;;;;6.20;3.80;;;;;;;9.04;100.00;96355.36;109401;1250;66746;-78
2023/03/11 00:15:39;;;;;;;6.40;4.00;;;;;;;9.03;100.00;96355.59;109363;1250;59439;-78
2023/03/11 00:18:06;;;;;;;8.40;4.50;;;;;;;9.03;100.00;96353.12;109628;1250;64233;-79
2023/03/11 00:20:38;;;;;;;7.60;4.40;;;;;;;9.04;100.00;96349.69;109324;1250;59004;-77
2023/03/11 00:23:05;;;;;;;6.50;4.50;;;;;;;9.03;100.00;96348.13;109626;1250;59019;-78
2023/03/11 00:25:34;;;;;;;5.10;3.90;;;;;;;9.03;100.00;96349.21;109423;1250;65689;-77
2023/03/11 00:28:02;;;;;;;5.80;4.10;;;;;;;9.04;100.00;96348.80;109625;1250;61077;-77
2023/03/11 00:30:29;;;;;;;5.20;4.30;;;;;;;9.06;100.00;96352.30;109626;1250;63845;-77
2023/03/11 00:32:57;;;;;;;6.30;4.40;;;;;;;9.05;100.00;96350.61;109618;1251;59003;-78
2023/03/11 00:35:26;;;;;;;4.80;3.50;;;;;;;9.05;100.00;96342.61;109643;1250;58783;-79
2023/03/11 00:37:56;;;;;;;7.20;4.00;;;;;;;9.06;100.00;96338.16;109663;1250;67290;-78
2023/03/11 00:40:25;;;;;;;6.70;3.60;;;;;;;9.08;100.00;96336.52;109632;1250;60084;-79
2023/03/11 00:42:52;;;;;;;6.40;4.00;;;;;;;9.08;100.00;96343.26;109568;1250;64726;-78
2023/03/11 00:45:18;;;;;;;5.20;3.20;;;;;;;9.05;100.00;96343.05;109626;1250;59124;-78
2023/03/11 00:47:45;;;;;;;5.00;3.40;;;;;;;9.03;100.00;96344.27;109364;1250;59148;-78
2023/03/11 00:50:24;;;;;;;6.10;2.70;;;;;;;9.02;100.00;96344.89;109631;1250;67095;-79
2023/03/11 00:52:51;;;;;;;4.30;2.80;;;;;;;9.02;100.00;96338.34;109680;1250;60339;-78
2023/03/11 00:55:25;;;;;;;4.00;2.80;;;;;;;9.00;100.00;96334.09;109652;1250;64160;-78
2023/03/11 00:57:57;;;;;;;3.10;2.80;;;;;;;8.96;100.00;96335.01;109592;1250;58925;-78
2023/03/11 01:00:26;;;;;;;3.40;2.70;;;;;;;8.94;100.00;96335.05;109591;1250;59053;-78
2023/03/11 01:02:54;;;;;;;3.70;2.20;;;;;;;8.92;100.00;96336.66;109576;1250;66994;-77
2023/03/11 01:05:23;;;;;;;5.50;2.60;;;;;;;8.92;100.00;96333.86;109606;1250;59821;-77
2023/03/11 01:07:50;;;;;;;3.40;2.50;;;;;;;8.91;100.00;96333.08;109616;1250;63923;-78
2023/03/11 01:10:17;;;;;;;4.10;3.00;;;;;;;8.91;100.00;96333.41;109590;1250;59177;-78
2023/03/11 01:12:43;;;;;;;3.60;2.10;;;;;;;8.91;100.00;96338.45;109655;1250;59024;-78
2023/03/11 01:15:17;;;;;;;4.10;2.90;;;;;;;8.89;100.00;96341.95;109419;1250;65718;-78
2023/03/11 01:17:44;;;;;;;2.70;2.40;;;;;;;8.86;100.00;96341.23;109621;1250;59695;-78
2023/03/11 01:20:11;;;;;;;4.20;2.80;;;;;;;8.83;100.00;96343.33;109555;1250;63692;-77
2023/03/11 01:22:38;;;;;;;2.50;2.10;;;;;;;8.80;100.00;96346.98;109602;1250;59215;-78
2023/03/11 01:25:05;;;;;;;3.10;2.50;;;;;;;8.75;100.00;96347.09;109659;1250;59104;-77
2023/03/11 01:27:31;;;;;;;2.10;1.90;;;;;;;8.69;100.00;96348.02;109490;1250;66749;-78
2023/03/11 01:29:58;;;;;;;2.90;2.50;;;;;;;8.64;100.00;96349.14;109607;1250;60870;-78
2023/03/11 01:32:24;;;;;;;3.60;2.70;;;;;;;8.59;100.00;96351.40;109611;1250;64725;-78
2023/03/11 01:34:51;;;;;;;3.40;2.40;;;;;;;8.55;100.00;96355.86;109619;1250;59013;-78
2023/03/11 01:37:19;;;;;;;3.40;2.40;;;;;;;8.50;100.00;96352.96;109623;1250;58986;-78
2023/03/11 01:39:45;;;;;;;3.20;1.70;;;;;;;8.48;100.00;96351.48;109628;1250;67178;-79
2023/03/11 01:42:12;;;;;;;3.20;2.00;;;;;;;8.42;100.00;96355.12;109699;1250;60770;-78
2023/03/11 01:44:38;;;;;;;2.60;2.00;;;;;;;8.33;100.00;96350.25;109641;1250;64020;-78
2023/03/11 01:47:11;;;;;;;3.30;1.70;;;;;;;8.25;100.00;96351.64;109632;1250;59029;-78
2023/03/11 01:49:40;;;;;;;2.50;1.70;;;;;;;8.16;100.00;96346.16;109648;1250;59424;-78
2023/03/11 01:52:08;;;;;;;2.00;1.70;;;;;;;8.07;100.00;96350.22;109652;1250;66930;-78
2023/03/11 01:54:37;;;;;;;1.80;1.30;;;;;;;7.99;100.00;96353.52;109615;1250;59894;-77
2023/03/11 01:57:11;;;;;;;1.40;1.00;;;;;;;7.91;100.00;96357.93;109771;1250;63652;-78
2023/03/11 01:59:43;;;;;;;1.80;1.30;;;;;;;7.84;100.00;96364.79;109913;1250;58982;-78
2023/03/11 02:02:13;;;;;;;1.10;1.00;;;;;;;7.77;100.00;96363.98;109689;1250;60046;-78
2023/03/11 02:04:40;;;;;;;2.50;1.50;;;;;;;7.69;100.00;96367.86;109677;1250;66159;-79
2023/03/11 02:07:09;;;;;;;1.70;0.90;;;;;;;7.65;100.00;96366.31;109714;1250;59925;-78
2023/03/11 02:09:36;;;;;;;1.20;0.80;;;;;;;7.63;100.00;96366.30;109653;1250;64713;-78
2023/03/11 02:12:04;;;;;;;1.10;0.80;;;;;;;7.64;100.00;96366.25;109604;1250;58993;-78
2023/03/11 02:14:31;;;;;;;1.50;0.80;;;;;;;7.66;100.00;96365.04;109560;1250;59062;-78
2023/03/11 02:16:59;;;;;;;2.40;1.00;;;;;;;7.67;100.00;96365.65;109661;1250;66118;-78
2023/03/11 02:20:11;;;;;;;1.20;0.60;;;;;;;7.66;100.00;96364.61;109619;1250;59763;-79
2023/03/11 02:22:42;;;;;;;1.20;0.80;;;;;;;7.66;100.00;96365.69;109016;1257;64269;-79
2023/03/11 02:25:11;;;;;;;1.30;0.80;;;;;;;7.66;99.96;96371.89;109040;1257;59011;-77
2023/03/11 02:27:41;;;;;;;0.70;0.70;;;;;;;7.65;99.74;96378.17;109048;1257;59009;-78
2023/03/11 02:30:10;;;;;;;1.10;0.80;;;;;;;7.63;99.73;96386.64;109028;1257;65982;-78
2023/03/11 02:32:37;;;;;;;1.80;0.90;;;;;;;7.62;99.42;96387.69;108905;1257;60772;-78
2023/03/11 02:35:05;;;;;;;1.20;0.90;;;;;;;7.59;98.84;96384.02;109009;1257;64855;-78
2023/03/11 02:37:32;;;;;;;1.90;0.90;;;;;;;7.58;98.24;96380.31;108960;1257;59060;-78
2023/03/11 02:40:21;;;;;;;1.20;0.70;;;;;;;7.56;97.19;96381.49;109007;1257;59146;-78
2023/03/11 02:43:00;;;;;;;1.00;0.70;;;;;;;7.56;96.04;96384.38;109045;1257;67207;-78
2023/03/11 02:45:29;;;;;;;1.80;0.60;;;;;;;7.55;96.67;96386.72;109051;1257;60198;-77
2023/03/11 02:47:58;;;;;;;0.80;0.70;;;;;;;7.53;96.15;96391.23;109040;1257;65022;-78
2023/03/11 02:50:28;;;;;;;0.70;0.60;;;;;;;7.49;96.16;96396.71;108982;1257;58857;-78
2023/03/11 02:52:54;;;;;;;0.60;0.60;;;;;;;7.44;96.61;96399.63;109048;1257;59003;-77
2023/03/11 02:55:22;;;;;;;1.60;0.90;;;;;;;7.38;96.92;96396.52;109038;1257;67010;-78
2023/03/11 02:57:48;;;;;;;0.90;0.90;;;;;;;7.32;97.12;96389.29;108976;1257;59727;-77
2023/03/11 03:00:33;;;;;;;2.50;0.90;;;;;;;7.25;97.36;96392.91;109417;1250;63871;-78
2023/03/11 03:03:00;;;;;;;1.50;1.40;;;;;;;7.20;98.06;96395.04;109448;1250;59445;-77
2023/03/11 03:05:27;;;;;;;1.00;0.90;;;;;;;7.15;98.13;96391.76;109681;1250;58889;-78
2023/03/11 03:07:54;;;;;;;1.30;0.90;;;;;;;7.11;98.01;96389.20;109587;1250;65995;-78
2023/03/11 03:10:21;;;;;;;2.30;1.30;;;;;;;7.07;97.64;96384.09;109663;1250;61161;-77
2023/03/11 03:12:48;;;;;;;1.90;0.80;;;;;;;7.05;97.55;96388.86;109608;1250;65312;-78
2023/03/11 03:15:15;;;;;;;1.40;0.70;;;;;;;7.03;97.81;96391.52;109595;1250;59081;-78
2023/03/11 03:17:42;;;;;;;2.70;1.30;;;;;;;7.01;97.95;96388.38;109647;1250;59006;-77
2023/03/11 03:20:12;;;;;;;1.40;1.10;;;;;;;6.99;97.79;96385.84;109644;1250;66962;-78
2023/03/11 03:22:40;;;;;;;2.90;1.10;;;;;;;6.99;97.39;96388.67;109651;1250;60170;-78
2023/03/11 03:25:07;;;;;;;1.60;1.30;;;;;;;6.99;97.12;96386.07;109598;1250;64815;-78
2023/03/11 03:27:35;;;;;;;2.40;1.30;;;;;;;6.98;96.94;96382.63;109627;1250;59059;-78
2023/03/11 03:30:03;;;;;;;2.00;1.10;;;;;;;6.98;96.58;96386.02;109635;1250;58964;-78
2023/03/11 03:32:29;;;;;;;1.50;1.20;;;;;;;6.96;96.31;96386.01;109346;1250;66154;-77
2023/03/11 03:34:58;;;;;;;2.30;1.20;;;;;;;6.95;96.22;96380.65;109601;1250;59731;-78
2023/03/11 03:37:26;;;;;;;1.20;0.90;;;;;;;6.91;96.36;96371.61;109613;1250;73868;-77
2023/03/11 03:39:53;;;;;;;1.30;0.90;;;;;;;6.89;95.93;96373.27;109603;1250;58946;-78
2023/03/11 03:42:20;;;;;;;0.90;0.90;;;;;;;6.86;96.06;96371.93;109656;1250;58960;-78
2023/03/11 03:44:47;;;;;;;1.90;1.00;;;;;;;6.84;95.94;96372.53;109570;1250;65765;-78
2023/03/11 03:47:13;;;;;;;1.30;0.80;;;;;;;6.81;96.13;96371.90;109631;1250;61204;-78
2023/03/11 03:49:40;;;;;;;1.10;1.00;;;;;;;6.77;96.58;96364.30;109620;1250;63895;-77
2023/03/11 03:52:09;;;;;;;1.10;1.00;;;;;;;6.72;98.09;96361.23;109567;1251;59018;-78
2023/03/11 03:54:36;;;;;;;1.90;1.20;;;;;;;6.66;99.80;96356.92;109642;1250;59026;-79
2023/03/11 03:57:04;;;;;;;1.30;1.10;;;;;;;6.58;100.00;96351.79;109661;1250;66789;-77
2023/03/11 03:59:30;;;;;;;1.70;0.80;;;;;;;6.51;100.00;96352.77;109646;1250;60995;-77
2023/03/11 04:01:57;;;;;;;2.30;1.30;;;;;;;6.45;100.00;96347.15;109625;1250;62820;-77
2023/03/11 04:04:24;;;;;;;1.60;1.20;;;;;;;6.40;100.00;96348.73;109568;1250;59071;-78
2023/03/11 04:06:51;;;;;;;1.30;1.20;;;;;;;6.36;100.00;96353.29;109618;1250;58871;-77
2023/03/11 04:09:18;;;;;;;2.10;1.50;;;;;;;6.32;100.00;96361.21;109606;1250;67192;-77
2023/03/11 04:11:44;;;;;;;2.20;1.20;;;;;;;6.30;100.00;96358.65;109382;1250;60842;-78
2023/03/11 04:14:11;;;;;;;2.60;1.30;;;;;;;6.28;100.00;96361.10;109621;1250;64917;-77
2023/03/11 04:16:38;;;;;;;3.00;2.00;;;;;;;6.26;100.00;96372.77;109601;1250;58958;-77
2023/03/11 04:19:04;;;;;;;1.20;1.20;;;;;;;6.23;100.00;96372.14;109673;1250;58884;-77
2023/03/11 04:21:32;;;;;;;1.10;1.00;;;;;;;6.21;100.00;96374.47;109649;1250;65636;-78
2023/03/11 04:23:59;;;;;;;1.40;1.10;;;;;;;6.17;100.00;96374.84;109609;1250;61089;-78
2023/03/11 04:26:27;;;;;;;1.90;1.00;;;;;;;6.10;100.00;96379.48;109626;1250;63915;-78
2023/03/11 04:28:53;;;;;;;3.10;1.30;;;;;;;6.02;100.00;96381.93;109632;1250;58930;-78
2023/03/11 04:31:20;;;;;;;1.80;1.10;;;;;;;5.92;100.00;96380.41;109362;1250;59063;-78
2023/03/11 04:33:47;;;;;;;1.80;1.40;;;;;;;5.82;100.00;96390.62;109599;1250;67202;-78
2023/03/11 04:36:13;;;;;;;1.10;1.00;;;;;;;5.73;100.00;96394.43;109650;1250;60204;-78
2023/03/11 04:38:40;;;;;;;1.20;1.10;;;;;;;5.65;100.00;96392.13;109532;1250;65233;-79
2023/03/11 04:41:07;;;;;;;1.20;1.10;;;;;;;5.58;100.00;96390.45;109627;1250;59024;-78
2023/03/11 04:43:34;;;;;;;1.00;0.80;;;;;;;5.49;100.00;96392.45;109646;1250;58959;-78
2023/03/11 04:46:01;;;;;;;1.20;0.70;;;;;;;5.42;100.00;96388.34;109594;1250;67209;-78
2023/03/11 04:48:27;;;;;;;1.20;1.10;;;;;;;5.37;100.00;96388.24;109371;1250;60350;-78
2023/03/11 04:50:54;;;;;;;1.30;1.20;;;;;;;5.33;100.00;96384.41;109647;1250;63919;-77
2023/03/11 04:53:22;;;;;;;4.00;1.20;;;;;;;5.28;100.00;96378.85;109575;1250;59011;-79
2023/03/11 04:55:49;;;;;;;1.40;1.10;;;;;;;5.23;100.00;96381.59;109641;1250;59008;-78
2023/03/11 04:58:16;;;;;;;1.40;1.00;;;;;;;5.19;100.00;96383.66;109671;1250;66087;-78
2023/03/11 05:00:42;;;;;;;2.00;1.80;;;;;;;5.16;100.00;96382.88;109651;1250;61103;-78
2023/03/11 05:03:09;;;;;;;2.20;1.70;;;;;;;5.15;100.00;96383.17;109597;1250;65139;-77
2023/03/11 05:05:35;;;;;;;1.60;1.50;;;;;;;5.13;100.00;96386.86;109492;1250;59389;-78
2023/03/11 05:08:03;;;;;;;2.90;2.10;;;;;;;5.10;100.00;96384.77;109625;1250;58849;-78
2023/03/11 05:10:29;;;;;;;2.00;1.80;;;;;;;5.09;100.00;96386.65;109323;1250;67184;-78
2023/03/11 05:12:56;;;;;;;3.40;1.60;;;;;;;5.07;100.00;96391.40;109660;1250;60222;-78
2023/03/11 05:15:23;;;;;;;3.00;1.80;;;;;;;5.05;100.00;96391.58;109623;1250;64775;-78
2023/03/11 05:17:49;;;;;;;4.80;2.30;;;;;;;5.03;100.00;96395.23;109591;1250;58939;-78
2023/03/11 05:20:16;;;;;;;3.70;2.60;;;;;;;5.02;100.00;96398.46;109602;1250;59279;-78
2023/03/11 05:22:43;;;;;;;5.00;2.90;;;;;;;5.02;100.00;96404.46;109605;1250;66745;-78
2023/03/11 05:25:09;;;;;;;2.60;1.90;;;;;;;5.02;100.00;96409.23;109669;1250;60757;-78
2023/03/11 05:27:36;;;;;;;1.40;1.10;;;;;;;5.02;100.00;96415.05;109600;1250;65278;-79
2023/03/11 05:30:03;;;;;;;0.70;0.70;;;;;;;4.99;100.00;96418.45;109640;1250;58921;-78
2023/03/11 05:32:30;;;;;;;0.90;0.60;;;;;;;4.96;100.00;96427.67;109629;1250;59089;-78
2023/03/11 05:34:56;;;;;;;0.50;0.40;;;;;;;4.94;100.00;96432.13;109645;1250;67070;-78
2023/03/11 05:37:23;;;;;;;0.70;0.70;;;;;;;4.91;100.00;96427.96;109610;1250;59975;-78
2023/03/11 05:39:51;;;;;;;1.10;0.90;;;;;;;4.87;100.00;96434.47;109619;1250;65210;-77
2023/03/11 05:42:18;;;;;;;1.10;0.90;;;;;;;4.83;100.00;96435.70;109593;1250;59081;-78
2023/03/11 05:44:45;;;;;;;0.60;0.60;;;;;;;4.78;100.00;96441.38;109659;1250;59141;-78
2023/03/11 05:47:11;;;;;;;0.90;0.90;;;;;;;4.72;100.00;96447.30;109403;1250;66722;-77
2023/03/11 05:49:38;;;;;;;0.90;0.80;;;;;;;4.69;100.00;96447.44;109637;1250;59829;-78
2023/03/11 05:52:04;;;;;;;0.80;0.80;;;;;;;4.66;100.00;96452.42;109606;1250;63683;-78
2023/03/11 05:54:31;;;;;;;1.10;0.80;;;;;;;4.62;100.00;96456.40;109638;1250;58937;-78
2023/03/11 05:56:58;;;;;;;1.60;1.10;;;;;;;4.61;100.00;96458.10;109639;1250;58859;-78
2023/03/11 05:59:25;;;;;;;1.40;1.30;;;;;;;4.62;100.00;96461.20;109532;1250;66976;-78
2023/03/11 06:01:52;;;;;;;1.90;1.20;;;;;;;4.62;100.00;96466.23;109649;1250;61312;-78
2023/03/11 06:04:18;;;;;;;2.40;1.30;;;;;;;4.61;100.00;96468.30;109665;1250;64821;-78
2023/03/11 06:06:45;;;;;;;3.00;1.40;;;;;;;4.59;100.00;96473.70;109568;1250;58912;-78
2023/03/11 06:09:13;;;;;;;2.00;1.90;;;;;;;4.58;100.00;96479.98;109512;1250;58979;-78
2023/03/11 06:11:39;;;;;;;1.70;1.10;;;;;;;4.57;100.00;96489.92;109598;1250;65690;-79
2023/03/11 06:14:06;;;;;;;1.20;1.10;;;;;;;4.52;100.00;96495.41;109787;1250;60099;-78
2023/03/11 06:16:32;;;;;;;1.50;0.90;;;;;;;4.44;100.00;96499.41;109817;1250;63762;-78
2023/03/11 06:18:59;;;;;;;0.70;0.70;;;;;;;4.37;100.00;96503.98;109617;1250;58963;-78
2023/03/11 06:21:26;;;;;;;0.90;0.90;;;;;;;4.33;100.00;96516.47;109631;1250;59337;-78
2023/03/11 06:23:53;;;;;;;1.30;1.20;;;;;;;4.31;100.00;96524.05;109626;1250;66913;-79
2023/03/11 06:26:21;;;;;;;0.90;0.80;;;;;;;4.29;100.00;96533.38;109414;1250;59827;-78
2023/03/11 06:28:49;;;;;;;1.20;0.90;;;;;;;4.30;100.00;96538.91;109639;1250;65199;-79
2023/03/11 06:31:23;;;;;;;1.10;1.00;;;;;;;4.34;100.00;96545.02;109607;1250;58954;-78
2023/03/11 06:33:50;;;;;;;0.90;0.80;;;;;;;4.32;100.00;96546.47;109360;1250;59087;-78
2023/03/11 06:36:18;;;;;;;1.70;1.40;;;;;;;4.25;100.00;96552.66;109589;1250;67237;-78
2023/03/11 06:38:47;;;;;;;2.00;1.50;;;;;;;4.15;100.00;96562.38;109626;1250;61051;-79
2023/03/11 06:41:14;;;;;;;2.60;1.50;;;;;;;4.07;100.00;96567.08;109662;1250;64288;-77
2023/03/11 06:43:42;;;;;;;1.50;1.40;;;;;;;4.01;100.00;96575.64;109630;1250;58958;-76
2023/03/11 06:46:17;;;;;;;1.10;1.00;;;;;;;3.89;100.00;96581.12;109668;1250;59066;-78
2023/03/11 06:48:45;;;;;;;1.80;1.20;;;;;;;3.74;100.00;96595.52;109625;1250;65951;-75
2023/03/11 06:51:12;;;;;;;1.70;1.40;;;;;;;3.61;100.00;96603.51;109558;1250;61114;-78
2023/03/11 06:53:39;;;;;;;1.10;1.00;;;;;;;3.50;100.00;96606.66;109642;1250;65162;-79
2023/03/11 06:56:13;;;;;;;1.30;1.20;;;;;;;3.34;100.00;96612.23;109616;1250;58944;-78
2023/03/11 06:58:41;;;;;;;1.50;1.20;;;;;;;3.18;100.00;96622.77;109447;1250;59037;-79
2023/03/11 07:01:12;;;;;;;1.50;1.30;;;;;;;3.07;100.00;96630.45;109667;1250;66921;-79
2023/03/11 07:03:39;;;;;;;2.50;1.20;;;;;;;3.00;100.00;96636.59;109618;1250;60177;-78
2023/03/11 07:06:11;;;;;;;0.90;0.90;;;;;;;2.97;100.00;96642.73;109620;1250;64771;-78
2023/03/11 07:08:38;;;;;;;1.10;1.00;;;;;;;2.98;100.00;96646.17;109417;1254;59000;-77
2023/03/11 07:11:14;;;;;;;1.70;1.50;;;;;;;2.97;100.00;96654.71;109665;1250;59433;-78
2023/03/11 07:13:42;;;;;;;1.60;1.50;;;;;;;2.94;100.00;96663.71;109649;1250;66834;-79
2023/03/11 07:16:24;;;;;;;1.70;1.50;;;;;;;2.91;100.00;96669.51;109663;1250;60238;-78
2023/03/11 07:18:51;;;;;;;2.30;1.80;;;;;;;2.89;100.00;96672.17;109649;1250;65123;-78
2023/03/11 07:21:21;;;;;;;1.70;1.60;;;;;;;2.87;100.00;96678.60;109648;1250;59048;-78
2023/03/11 07:23:51;;;;;;;2.50;2.30;;;;;;;2.80;100.00;96681.50;109675;1250;59006;-78
2023/03/11 07:26:18;;;;;;;2.40;2.20;;;;;;;2.77;100.00;96685.96;109623;1250;65842;-80
2023/03/11 07:28:44;;;;;;;3.60;3.10;;;;;;;2.75;100.00;96691.23;109649;1250;61082;-78
2023/03/11 07:31:15;;;;;;;3.70;3.20;;;;;;;2.72;100.00;96695.44;109662;1250;65257;-79
2023/03/11 07:33:41;;;;;;;4.40;4.00;;;;;;;2.69;100.00;96696.67;109649;1250;59060;-78
2023/03/11 07:36:10;;;;;;;5.00;4.50;;;;;;;2.72;100.00;96700.21;109670;1250;58994;-78
2023/03/11 07:38:38;;;;;;;6.10;5.10;;;;;;;2.73;100.00;96698.91;109405;1250;65951;-78
2023/03/11 07:41:05;;;;;;;4.80;4.20;;;;;;;2.74;100.00;96700.59;109674;1249;61233;-79
2023/03/11 07:43:32;;;;;;;5.10;4.50;;;;;;;2.74;100.00;96700.05;109628;1250;65048;-79
2023/03/11 07:46:25;;;;;;;4.90;4.10;;;;;;;2.75;100.00;96700.17;109658;1251;59029;-79
2023/03/11 07:48:52;;;;;;;3.90;3.50;;;;;;;2.75;100.00;96704.34;109658;1250;59006;-79
2023/03/11 07:51:24;;;;;;;4.30;3.70;;;;;;;2.77;100.00;96711.23;109673;1250;66932;-79
2023/03/11 07:53:53;;;;;;;4.80;3.90;;;;;;;2.78;100.00;96712.36;109688;1250;61099;-78
2023/03/11 07:56:22;;;;;;;4.70;4.00;;;;;;;2.79;100.00;96716.20;108794;1250;1002517;-78
2023/03/11 07:58:49;;;;;;;3.50;2.70;;;;;;;2.81;100.00;96724.08;109620;1250;58897;-78
2023/03/11 08:01:19;;;;;;;4.00;3.60;;;;;;;2.79;100.00;96723.03;109280;1255;59010;-78
2023/03/11 08:03:48;;;;;;;4.30;3.80;;;;;;;2.74;100.00;96728.11;109658;1250;66157;-78
2023/03/11 08:06:21;;;;;;;4.40;3.70;;;;;;;2.70;100.00;96730.13;109664;1250;60606;-78
2023/03/11 08:08:50;;;;;;;6.20;4.70;;;;;;;2.65;100.00;96725.21;109633;1250;65169;-79
2023/03/11 08:11:19;;;;;;;5.30;4.20;;;;;;;2.64;100.00;96726.54;109614;1250;59006;-79
2023/03/11 08:13:47;;;;;;;4.60;3.80;;;;;;;2.67;100.00;96726.50;109612;1250;59017;-79
2023/03/11 08:16:15;;;;;;;5.00;3.90;;;;;;;2.69;100.00;96729.53;109669;1250;67107;-79
2023/03/11 08:18:42;;;;;;;4.00;3.70;;;;;;;2.70;100.00;96730.45;109654;1250;68780;-78
2023/03/11 08:21:17;;;;;;;7.50;4.30;;;;;;;2.75;100.00;96729.76;109648;1250;65257;-78
2023/03/11 08:23:47;;;;;;;3.20;2.90;;;;;;;2.80;100.00;96730.08;109265;1251;59093;-79
2023/03/11 08:26:16;;;;;;;4.50;3.40;;;;;;;2.80;100.00;96732.71;109639;1250;59047;-79
2023/03/11 08:28:43;;;;;;;3.60;3.30;;;;;;;2.80;100.00;96736.03;109654;1250;67129;-78
2023/03/11 08:31:12;;;;;;;4.40;3.20;;;;;;;2.84;100.00;96738.23;109631;1250;60025;-77
2023/03/11 08:33:40;;;;;;;4.40;4.00;;;;;;;2.86;100.00;96735.63;109640;1250;64042;-78
2023/03/11 08:36:06;;;;;;;4.40;4.00;;;;;;;2.90;100.00;96741.52;109631;1250;59045;-77
2023/03/11 08:38:33;;;;;;;4.90;4.10;;;;;;;2.92;100.00;96743.48;109675;1250;59168;-78
2023/03/11 08:41:00;;;;;;;4.30;3.80;;;;;;;2.93;100.00;96747.60;109647;1250;67018;-77
2023/03/11 08:43:27;;;;;;;4.20;3.70;;;;;;;2.98;100.00;96748.28;109695;1250;60178;-78
2023/03/11 08:45:53;;;;;;;4.70;4.30;;;;;;;3.02;100.00;96751.63;109647;1250;63993;-80
2023/03/11 08:48:22;;;;;;;4.60;3.90;;;;;;;3.06;100.00;96754.66;109581;1250;59284;-84
2023/03/11 08:50:49;;;;;;;3.50;3.20;;;;;;;3.13;100.00;96760.04;109615;1250;59382;-76
2023/03/11 08:53:16;;;;;;;3.90;3.60;;;;;;;3.17;100.00;96764.84;109624;1250;67131;-77
2023/03/11 08:55:42;;;;;;;4.70;4.10;;;;;;;3.16;100.00;96765.41;109651;1250;61593;-77
2023/03/11 08:58:09;;;;;;;3.70;3.40;;;;;;;3.10;100.00;96766.19;109616;1250;62400;-86
2023/03/11 09:00:35;;;;;;;4.40;4.00;;;;;;;3.03;100.00;96770.89;109471;1250;59031;-85
2023/03/11 09:03:02;;;;;;;4.20;3.80;;;;;;;2.96;100.00;96777.35;109552;1250;59182;-76
2023/03/11 09:05:29;;;;;;;4.50;4.10;;;;;;;2.96;100.00;96781.23;109586;1250;67184;-77
2023/03/11 09:07:56;;;;;;;5.30;4.80;;;;;;;3.04;100.00;96784.52;109619;1250;61081;-77
2023/03/11 09:10:22;;;;;;;6.00;4.20;;;;;;;3.10;100.00;96790.07;109604;1250;65261;-69
2023/03/11 09:12:49;;;;;;;5.60;4.10;;;;;;;3.14;100.00;96795.19;109591;1250;58997;-83
2023/03/11 09:15:16;;;;;;;5.20;4.50;;;;;;;3.13;100.00;96796.18;109623;1250;58904;-78
2023/03/11 09:17:43;;;;;;;5.20;4.40;;;;;;;3.10;100.00;96800.25;109288;1250;65653;-79
2023/03/11 09:20:14;;;;;;;7.00;3.90;;;;;;;3.03;100.00;96802.45;109647;1250;60106;-80
2023/03/11 09:22:40;;;;;;;6.30;3.80;;;;;;;3.01;100.00;96816.29;109695;1250;65205;-77
2023/03/11 09:25:10;;;;;;;6.90;4.40;;;;;;;3.03;100.00;96822.66;109627;1253;58908;-76
2023/03/11 09:27:37;;;;;;;4.30;3.70;;;;;;;3.06;100.00;96818.58;109636;1250;59090;-77
2023/03/11 09:30:04;;;;;;;5.60;4.00;;;;;;;3.18;100.00;96820.37;109623;1250;67082;-76
2023/03/11 09:32:31;;;;;;;5.90;4.30;;;;;;;3.26;100.00;96828.20;109613;1250;59996;-76
2023/03/11 09:34:59;;;;;;;6.30;5.30;;;;;;;3.16;100.00;96835.91;109625;1250;63722;-75
2023/03/11 09:37:25;;;;;;;6.60;5.30;;;;;;;3.07;100.00;96841.70;109619;1250;58936;-76
2023/03/11 09:39:52;;;;;;;6.50;5.90;;;;;;;2.98;100.00;96841.59;109313;1253;59098;-76
2023/03/11 09:42:22;;;;;;;8.00;5.20;;;;;;;2.89;100.00;96846.83;109565;1251;67055;-77
2023/03/11 09:45:10;;;;;;;;;;;;;;;2.79;100.00;96848.92;109560;1253;60799;-77
2023/03/11 09:47:58;;;;;;;5.60;5.00;;;;;;;2.71;100.00;96854.39;109486;1253;64018;-76
2023/03/11 09:50:30;;;;;;;5.50;5.00;;;;;;;2.69;100.00;96853.80;109507;1251;58943;-77
2023/03/11 09:53:17;;;;;;;6.00;5.40;;;;;;;2.66;100.00;96862.27;109600;1252;59912;-78
2023/03/11 09:55:52;;;;;;;6.90;6.20;;;;;;;2.62;100.00;96872.32;109547;1252;66797;-77
2023/03/11 09:58:40;;;;;;;5.10;4.60;;;;;;;2.61;100.00;96879.23;109534;1253;60516;-76
2023/03/11 10:01:15;;;;;;;5.10;4.30;;;;;;;2.59;100.00;96883.77;109519;1253;65215;-76
2023/03/11 10:03:43;;;;;;;5.30;4.80;;;;;;;2.53;100.00;96884.87;109584;1253;59054;-76
2023/03/11 10:06:18;;;;;;;5.40;4.80;;;;;;;2.44;100.00;96893.56;109540;1251;58986;-78
2023/03/11 10:08:51;;;;;;;7.80;5.80;;;;;;;2.35;100.00;96899.91;109554;1253;66964;-76
2023/03/11 10:11:37;;;;;;;7.60;6.80;;;;;;;2.30;100.00;96900.83;109547;1253;60097;-76
2023/03/11 10:14:16;;;;;;;6.80;5.90;;;;;;;2.27;100.00;96907.88;109606;1251;64869;-76
2023/03/11 10:17:06;;;;;;;7.50;6.60;;;;;;;2.26;100.00;96909.87;109518;1252;59019;-76
2023/03/11 10:19:33;;;;;;;7.40;6.60;;;;;;;2.24;100.00;96919.64;109547;1251;58985;-75
2023/03/11 10:22:10;;;;;;;8.00;5.90;;;;;;;2.20;100.00;96924.02;109519;1251;67317;-75
2023/03/11 10:24:52;;;;;;;6.20;5.60;;;;;;;2.14;100.00;96928.86;109533;1253;59746;-75
2023/03/11 10:27:26;;;;;;;6.50;5.90;;;;;;;2.10;100.00;96933.33;108018;1251;1002392;-75
2023/03/11 10:30:05;;;;;;;7.70;6.80;;;;;;;2.09;100.00;96936.53;109242;1252;59025;-74
2023/03/11 10:32:41;;;;;;;8.30;7.40;;;;;;;2.05;100.00;96945.03;109396;1253;59214;-74
2023/03/11 10:35:19;;;;;;;7.40;6.50;;;;;;;2.02;100.00;96953.45;109583;1253;65965;-75
2023/03/11 10:38:09;;;;;;;10.10;8.80;;;;;;;1.98;100.00;96956.86;109589;1250;60729;-75
2023/03/11 10:40:39;;;;;;;11.10;9.10;;;;;;;1.96;100.00;96961.02;109664;1250;64908;-74
2023/03/11 10:43:16;;;;;;;7.00;6.30;;;;;;;1.94;100.00;96967.49;109539;1250;58945;-74
2023/03/11 10:45:47;;;;;;;6.60;6.00;;;;;;;1.92;100.00;96975.63;109685;1250;58805;-74
2023/03/11 10:48:16;;;;;;;7.50;6.80;;;;;;;1.91;100.00;96983.08;109736;1250;66217;-73
2023/03/11 10:50:57;;;;;;;9.90;8.80;;;;;;;1.91;100.00;96984.30;109564;1250;111101;-73
2023/03/11 10:53:24;;;;;;;9.20;7.60;;;;;;;1.98;100.00;96988.77;109655;1250;64001;-73
2023/03/11 10:55:54;;;;;;;6.80;6.20;;;;;;;2.01;100.00;96994.90;109657;1250;59233;-73
2023/03/11 10:58:28;;;;;;;5.70;5.10;;;;;;;2.03;100.00;96998.95;109720;1250;59137;-73
2023/03/11 11:01:13;;;;;;;5.10;4.60;;;;;;;2.00;100.00;97001.41;108871;1250;1002889;-73
2023/03/11 11:03:45;;;;;;;4.50;4.10;;;;;;;1.94;100.00;97005.81;109321;1250;61109;-73
2023/03/11 11:06:26;;;;;;;6.00;4.80;;;;;;;1.89;100.00;97011.76;109655;1250;64877;-74
2023/03/11 11:09:06;;;;;;;4.90;3.90;;;;;;;1.84;100.00;97014.54;109677;1250;59001;-74
2023/03/11 11:11:35;;;;;;;4.20;3.90;;;;;;;1.81;100.00;97018.42;109630;1253;59039;-73
2023/03/11 11:14:01;;;;;;;4.20;3.60;;;;;;;1.82;100.00;97024.12;108910;1250;1002952;-73
2023/03/11 11:16:28;;;;;;;3.30;3.00;;;;;;;1.81;100.00;97032.37;109670;1250;61028;-73
2023/03/11 11:19:07;;;;;;;4.30;3.90;;;;;;;1.79;100.00;97034.63;109663;1250;64395;-73
2023/03/11 11:21:42;;;;;;;3.80;3.40;;;;;;;1.76;100.00;97045.33;109687;1250;58899;-73
2023/03/11 11:24:25;;;;;;;4.10;3.50;;;;;;;1.74;100.00;97049.61;109639;1250;59076;-73
2023/03/11 11:27:13;;;;;;;4.20;3.80;;;;;;;1.72;100.00;97054.09;109682;1250;65984;-73
2023/03/11 11:29:39;;;;;;;4.00;3.70;;;;;;;1.72;100.00;97062.68;109689;1254;59743;-74
2023/03/11 11:32:25;;;;;;;3.50;3.20;;;;;;;1.72;100.00;97072.52;109616;1250;62403;-74
2023/03/11 11:35:09;;;;;;;3.20;2.90;;;;;;;1.68;100.00;97080.31;109405;1250;59105;-74
2023/03/11 11:37:40;;;;;;;3.70;3.30;;;;;;;1.67;100.00;97088.90;109610;1250;58956;-74